KCLL - College Station/East, TX, US

Issued at 2320 UTC 14 Aug 2020
Updated at 0148 UTC 15 Aug 2020
Potential Impact None Slight Moderate High
Time0053Z 15/02Z 15/03Z 15/04Z 15/05Z 15/06Z 15/07Z 15/08Z 15/09Z 15/10Z 15/11Z 15/12Z 15/13Z 15/14Z>>
Type OBS PRVL PRVL PRVL PRVL PRVL PRVL PRVL PRVL PRVL PRVL PRVL PRVL PRVL
VIS 10 >6 >6 >6 >6 >6 >6 >6 >6 >6 >6 >6 >6 >6
CIG -- -- -- -- -- -- -- -- -- -- -- -- -- --
Cover CLR SKC SKC SKC SKC SKC SKC SKC SKC SKC SKC SCT SCT SCT
FltCat VFR VFR VFR VFR VFR VFR VFR VFR VFR VFR VFR VFR VFR VFR
WX -- -- -- -- -- -- -- -- -- -- -- -- -- --
WDir 160 180 180 180 180 180 180 VRB VRB VRB VRB 190 190 190
WSpd 11 11 11 11 11 11 11 5 5 5 5 5 5 5
WGst -- -- -- -- -- -- -- -- -- -- -- -- -- --
Raw TAF
KCLL 142320Z 1500/1524 18011KT P6SM SKC
  FM150800 VRB05KT P6SM SKC
  FM151200 19005KT P6SM FEW008 SCT015 SCT120
  FM151500 21011KT P6SM SCT120
  FM152000 18009KT P6SM FEW045 SCT100


Raw METAR
KCLL 150053Z 16011KT 10SM CLR 35/21 A2984 RMK AO2 SLP100 T03500211
KCLL 142353Z 16013KT 10SM CLR 37/20 A2983 RMK AO2 SLP096 T03670200 10378 20350 56012
KCLL 142253Z 17008KT 10SM CLR 37/19 A2983 RMK AO2 SLP096 T03720189

METAR Board
Radar Display
Forecast Discussion
For situational awareness. Not to be used for flight planning purposes.